Time;durP1;ratioP1;P1;durP2;ratioP2;P2;SDS_P1;SDS_P2;PMS_P1;PMS_P2;Temp;Humidity;BMP_temperature;BMP_pressure;BME280_temperature;BME280_humidity;BME280_pressure;Samples;Min_cycle;Max_cycle;Signal;HPM_P1;HPM_P2
2022/01/25 00:10:40;;;;;;;3.60;3.30;;;17.60;57.00;;;;;;5022075;28;20091;-68
2022/01/25 00:24:17;;;;;;;3.97;3.67;;;17.60;56.90;;;;;;5021488;28;20172;-67
2022/01/25 00:24:33;;;;;;;3.55;3.25;;;17.60;56.80;;;;;;5020291;28;20113;-69
2022/01/25 00:27:10;;;;;;;3.88;3.38;;;17.70;56.90;;;;;;5014455;28;20044;-68
2022/01/25 00:29:55;;;;;;;4.03;3.45;;;17.60;56.80;;;;;;5006164;28;20041;-69
2022/01/25 00:32:20;;;;;;;3.93;3.20;;;17.70;56.90;;;;;;5024094;28;20026;-68
2022/01/25 00:34:46;;;;;;;3.67;3.38;;;17.60;56.90;;;;;;5023115;28;20032;-69
2022/01/25 00:37:12;;;;;;;3.90;3.50;;;17.70;56.90;;;;;;5011952;28;20061;-69
2022/01/25 00:39:38;;;;;;;4.03;3.63;;;17.60;56.80;;;;;;5013165;28;20058;-68
2022/01/25 00:42:05;;;;;;;3.78;2.80;;;17.60;56.80;;;;;;5010714;28;20106;-68
2022/01/25 00:44:35;;;;;;;4.40;4.00;;;17.60;56.70;;;;;;5024755;28;20384;-67
2022/01/25 00:47:01;;;;;;;4.28;3.30;;;17.70;56.70;;;;;;5012262;28;20029;-68
2022/01/25 00:49:28;;;;;;;3.60;3.17;;;17.60;56.70;;;;;;5018244;28;20034;-68
2022/01/25 00:56:48;;;;;;;3.40;3.08;;;17.60;56.80;;;;;;5014167;28;20506;-68
2022/01/25 00:59:15;;;;;;;3.80;2.97;;;17.60;56.70;;;;;;5006925;28;20037;-69
2022/01/25 01:01:41;;;;;;;3.75;3.17;;;17.60;56.80;;;;;;5009019;28;20038;-68
2022/01/25 01:04:07;;;;;;;4.53;3.10;;;17.70;56.80;;;;;;5008934;28;20040;-69
2022/01/25 01:06:33;;;;;;;4.57;3.10;;;17.60;56.70;;;;;;5019692;28;20034;-69
2022/01/25 01:08:59;;;;;;;3.67;3.05;;;17.60;57.30;;;;;;5003958;28;20381;-69
2022/01/25 01:11:32;;;;;;;4.25;3.53;;;17.60;56.70;;;;;;5013399;28;20022;-68
2022/01/25 01:14:16;;;;;;;3.88;3.33;;;17.60;56.70;;;;;;5012848;28;20496;-68
2022/01/25 01:30:31;;;;;;;2.95;2.70;;;17.60;56.50;;;;;;5010961;28;20088;-67
2022/01/25 01:33:36;;;;;;;3.22;3.00;;;17.60;56.60;;;;;;5014532;28;20041;-68
2022/01/25 01:43:34;;;;;;;3.15;2.83;;;17.60;56.60;;;;;;5020490;28;20032;-68
2022/01/25 01:48:42;;;;;;;;;;;17.60;56.50;;;;;;5014190;28;20099;-68
2022/01/25 01:51:18;;;;;;;3.22;2.80;;;17.60;56.60;;;;;;5006564;28;20590;-68
2022/01/25 01:53:43;;;;;;;2.53;2.33;;;17.60;56.50;;;;;;5004736;28;20022;-68
2022/01/25 01:56:09;;;;;;;3.17;2.78;;;17.60;56.50;;;;;;5012707;28;20040;-68
2022/01/25 01:58:35;;;;;;;3.35;2.67;;;17.60;56.50;;;;;;5014418;28;20034;-67
2022/01/25 02:01:09;;;;;;;2.60;2.40;;;17.50;56.40;;;;;;5010653;28;20096;-67
2022/01/25 02:03:34;;;;;;;2.88;2.53;;;17.60;56.50;;;;;;5014505;28;20119;-68
2022/01/25 02:06:00;;;;;;;2.97;2.60;;;17.50;56.50;;;;;;5014221;28;20070;-67
2022/01/25 02:08:26;;;;;;;2.83;2.45;;;17.60;56.50;;;;;;5011599;28;20033;-67
2022/01/25 02:10:51;;;;;;;2.75;2.35;;;17.60;56.50;;;;;;5023372;28;20554;-68
2022/01/25 02:13:17;;;;;;;2.70;2.30;;;17.50;56.40;;;;;;5011135;28;21674;-68
2022/01/25 02:15:47;;;;;;;3.10;2.53;;;17.50;56.40;;;;;;5016308;28;20120;-68
2022/01/25 02:23:36;;;;;;;2.58;2.38;;;17.60;56.50;;;;;;5021148;28;20040;-68
2022/01/25 02:26:02;;;;;;;2.83;2.47;;;17.50;56.30;;;;;;5006210;28;20022;-68
2022/01/25 02:28:31;;;;;;;3.28;2.20;;;17.50;56.30;;;;;;5009469;28;20033;-68
2022/01/25 02:30:57;;;;;;;2.83;2.05;;;17.50;56.40;;;;;;5017406;28;20068;-68
2022/01/25 02:33:22;;;;;;;3.15;2.20;;;17.50;56.30;;;;;;5011301;28;20057;-68
2022/01/25 02:35:47;;;;;;;2.33;2.13;;;17.60;56.30;;;;;;5022833;28;20034;-68
2022/01/25 02:38:14;;;;;;;2.55;2.20;;;17.50;56.20;;;;;;5016823;28;20091;-68
2022/01/25 02:40:39;;;;;;;2.95;2.40;;;17.50;56.20;;;;;;5016028;28;20037;-68
2022/01/25 02:43:05;;;;;;;3.22;2.40;;;17.50;56.20;;;;;;5015313;28;20025;-68
2022/01/25 02:45:36;;;;;;;2.88;2.35;;;17.50;56.20;;;;;;5009316;28;20079;-68
2022/01/25 02:50:47;;;;;;;2.90;2.08;;;17.50;56.10;;;;;;5022621;28;20561;-67
2022/01/25 02:53:12;;;;;;;2.58;2.05;;;17.50;56.20;;;;;;5018659;28;20533;-68
2022/01/25 02:55:38;;;;;;;2.10;1.90;;;17.50;56.20;;;;;;5009227;28;20022;-68
2022/01/25 02:58:05;;;;;;;2.38;1.88;;;17.50;56.10;;;;;;5022567;28;20044;-68
2022/01/25 03:00:31;;;;;;;2.30;2.10;;;17.50;56.10;;;;;;5015322;28;20443;-69
2022/01/25 03:02:57;;;;;;;3.53;2.10;;;17.50;56.10;;;;;;5028047;28;20040;-68
2022/01/25 03:05:22;;;;;;;3.22;2.00;;;17.50;56.10;;;;;;5022886;28;20049;-68
2022/01/25 03:07:48;;;;;;;2.33;2.05;;;17.50;56.10;;;;;;5016774;28;20570;-68
2022/01/25 03:10:13;;;;;;;3.08;1.98;;;17.50;56.10;;;;;;5013201;28;20143;-68
2022/01/25 03:12:45;;;;;;;2.05;1.52;;;17.50;56.10;;;;;;5019799;28;20033;-67
2022/01/25 03:15:25;;;;;;;3.03;1.90;;;17.50;56.10;;;;;;5010116;28;20030;-68
2022/01/25 03:17:58;;;;;;;2.70;2.10;;;17.50;56.10;;;;;;5019692;28;20030;-67
2022/01/25 03:21:17;;;;;;;2.47;1.65;;;17.40;56.10;;;;;;5019322;28;20026;-69
2022/01/25 03:23:18;;;;;;;;;;;17.50;56.10;;;;;;5023366;28;20404;-67
2022/01/25 03:25:44;;;;;;;2.55;1.77;;;17.50;56.10;;;;;;5009914;22;20400;-65
2022/01/25 03:28:09;;;;;;;2.17;1.65;;;17.40;56.00;;;;;;5006429;28;20037;-65
2022/01/25 03:30:35;;;;;;;4.22;2.28;;;17.50;56.10;;;;;;5038315;28;20490;-65
2022/01/25 03:33:00;;;;;;;2.25;1.88;;;17.40;56.10;;;;;;5035461;28;20045;-66
2022/01/25 03:35:26;;;;;;;2.10;1.90;;;17.40;56.10;;;;;;5023207;28;20066;-65
2022/01/25 03:37:51;;;;;;;2.17;1.80;;;17.50;56.10;;;;;;5008666;28;20033;-62
2022/01/25 03:40:17;;;;;;;3.15;1.98;;;17.40;56.00;;;;;;5011703;28;20026;-66
2022/01/25 03:42:44;;;;;;;2.25;2.05;;;17.40;56.00;;;;;;5009569;28;20041;-63
2022/01/25 03:45:17;;;;;;;1.85;1.60;;;17.40;55.90;;;;;;5018691;28;20049;-64
2022/01/25 03:47:56;;;;;;;3.35;2.25;;;17.40;56.00;;;;;;5020991;28;20042;-63
2022/01/25 03:50:22;;;;;;;2.97;1.85;;;17.40;56.00;;;;;;5028981;28;20033;-66
2022/01/25 03:52:47;;;;;;;1.70;1.60;;;17.40;56.00;;;;;;5013644;28;20083;-67
2022/01/25 03:55:13;;;;;;;2.78;1.92;;;17.40;56.00;;;;;;5016139;28;20053;-64
2022/01/25 03:57:38;;;;;;;3.03;2.17;;;17.40;56.00;;;;;;5022758;28;20053;-64
2022/01/25 04:00:06;;;;;;;2.10;1.67;;;17.40;56.00;;;;;;5011379;28;20034;-62
2022/01/25 04:02:33;;;;;;;2.50;1.75;;;17.40;56.00;;;;;;5022482;28;20034;-64
2022/01/25 04:05:00;;;;;;;2.05;1.75;;;17.40;56.00;;;;;;5016256;28;20061;-62
2022/01/25 04:07:41;;;;;;;1.88;1.67;;;17.40;56.00;;;;;;5008036;28;20030;-64
2022/01/25 04:10:07;;;;;;;2.10;1.60;;;17.40;55.90;;;;;;5004677;28;20030;-65
2022/01/25 04:12:33;;;;;;;2.83;1.75;;;17.40;55.90;;;;;;5015966;28;20032;-65
2022/01/25 04:15:00;;;;;;;2.83;1.70;;;17.40;56.00;;;;;;5010497;28;20034;-64
2022/01/25 04:17:25;;;;;;;2.25;1.80;;;17.40;56.00;;;;;;5009090;28;20026;-64
2022/01/25 04:20:27;;;;;;;2.97;2.03;;;17.40;55.90;;;;;;5022642;28;20243;-66
2022/01/25 04:25:27;;;;;;;2.00;1.52;;;17.40;56.00;;;;;;5016137;28;20513;-66
2022/01/25 04:27:53;;;;;;;1.73;1.60;;;17.40;55.90;;;;;;5015921;28;20042;-64
2022/01/25 04:30:18;;;;;;;4.18;2.00;;;17.40;55.90;;;;;;5009189;28;20033;-66
2022/01/25 04:32:48;;;;;;;2.25;1.67;;;17.40;55.90;;;;;;5021673;28;20295;-63
2022/01/25 04:49:07;;;;;;;2.70;1.75;;;17.30;55.90;;;;;;5030891;28;20033;-64
2022/01/25 04:57:06;;;;;;;2.45;1.67;;;17.30;55.90;;;;;;5029239;28;20109;-65
2022/01/25 04:59:42;;;;;;;1.85;1.73;;;17.30;55.90;;;;;;5017528;28;20057;-64
2022/01/25 05:02:14;;;;;;;2.40;2.00;;;17.30;55.80;;;;;;5005891;28;20046;-65
2022/01/25 05:04:45;;;;;;;2.40;1.80;;;17.30;55.90;;;;;;5016278;28;20052;-64
2022/01/25 05:07:37;;;;;;;1.70;1.48;;;17.30;55.90;;;;;;5016747;28;20042;-62
2022/01/25 05:10:01;;;;;;;1.98;1.70;;;17.30;56.10;;;;;;5013759;28;20037;-61
2022/01/25 05:13:16;;;;;;;2.83;1.67;;;17.30;56.10;;;;;;5018832;28;20044;-65
2022/01/25 05:18:00;;;;;;;2.00;1.63;;;17.30;56.10;;;;;;5014459;28;20030;-64
2022/01/25 05:23:09;;;;;;;2.28;2.00;;;17.20;56.00;;;;;;5012431;28;20917;-62
2022/01/25 05:25:35;;;;;;;2.50;1.65;;;17.30;56.00;;;;;;5035741;28;20121;-63
2022/01/25 05:28:00;;;;;;;1.73;1.50;;;17.30;56.00;;;;;;5006441;28;20042;-65
2022/01/25 05:30:26;;;;;;;1.75;1.45;;;17.30;56.00;;;;;;5002854;28;20032;-63
2022/01/25 05:32:51;;;;;;;4.03;1.80;;;17.30;56.00;;;;;;5010911;28;20056;-62
2022/01/25 05:35:17;;;;;;;2.20;1.60;;;17.30;55.90;;;;;;5012352;28;20433;-61
2022/01/25 05:37:43;;;;;;;2.30;1.90;;;17.30;55.90;;;;;;5013299;28;20041;-63
2022/01/25 05:40:14;;;;;;;1.90;1.70;;;17.30;55.90;;;;;;5033052;28;20033;-63
2022/01/25 05:45:37;;;;;;;1.85;1.73;;;17.30;55.90;;;;;;5026730;28;20092;-63
2022/01/25 05:48:03;;;;;;;2.20;1.75;;;17.30;55.70;;;;;;5031519;28;20063;-61
2022/01/25 05:50:29;;;;;;;1.90;1.60;;;17.30;55.70;;;;;;5017203;28;20033;-63
2022/01/25 05:52:54;;;;;;;2.30;1.80;;;17.30;55.70;;;;;;5024294;28;20030;-62
2022/01/25 05:55:20;;;;;;;2.55;1.40;;;17.30;55.70;;;;;;5006083;28;20034;-62
2022/01/25 05:57:45;;;;;;;3.22;2.00;;;17.30;55.60;;;;;;5023871;28;20072;-61
2022/01/25 06:00:11;;;;;;;2.40;1.95;;;17.30;55.60;;;;;;5025258;28;20038;-62
2022/01/25 06:02:36;;;;;;;2.40;1.80;;;17.30;55.60;;;;;;5011630;28;20034;-62
2022/01/25 06:05:04;;;;;;;2.30;1.70;;;17.30;55.60;;;;;;5019833;28;20438;-62
2022/01/25 06:07:29;;;;;;;1.98;1.77;;;17.30;55.70;;;;;;5008705;28;20072;-62
2022/01/25 06:09:55;;;;;;;2.17;1.55;;;17.30;55.60;;;;;;5010296;28;20061;-62
2022/01/25 06:12:20;;;;;;;2.67;1.85;;;17.30;55.60;;;;;;5015158;28;20056;-62
2022/01/25 06:14:46;;;;;;;2.30;1.83;;;17.30;55.60;;;;;;5031857;28;20021;-61
2022/01/25 06:17:11;;;;;;;4.30;1.85;;;17.30;55.60;;;;;;5008960;28;20029;-63
2022/01/25 06:19:37;;;;;;;4.07;1.75;;;17.30;55.60;;;;;;5004479;28;20619;-62
2022/01/25 06:22:02;;;;;;;2.20;1.92;;;17.30;55.60;;;;;;5015913;28;20117;-62
2022/01/25 06:24:28;;;;;;;2.53;1.83;;;17.20;55.60;;;;;;5013674;28;20033;-61
2022/01/25 06:26:53;;;;;;;2.33;1.65;;;17.30;55.60;;;;;;5022959;28;20068;-62
2022/01/25 06:29:19;;;;;;;1.85;1.65;;;17.30;55.60;;;;;;5009243;28;20026;-61
2022/01/25 06:31:47;;;;;;;2.25;1.65;;;17.20;55.60;;;;;;5018817;28;20120;-62
2022/01/25 06:34:13;;;;;;;2.08;1.88;;;17.30;55.50;;;;;;5011014;28;20112;-62
2022/01/25 06:36:39;;;;;;;2.70;2.00;;;17.30;55.60;;;;;;5011317;28;20037;-62
2022/01/25 06:39:04;;;;;;;2.45;1.75;;;17.30;55.70;;;;;;5009239;28;20469;-61
2022/01/25 06:41:33;;;;;;;2.25;1.80;;;17.30;55.70;;;;;;5010574;28;20025;-62
2022/01/25 06:43:58;;;;;;;2.65;2.00;;;17.30;55.80;;;;;;5014923;28;20041;-61
2022/01/25 06:46:24;;;;;;;2.72;1.85;;;17.20;55.70;;;;;;5018150;28;20029;-62
2022/01/25 06:48:49;;;;;;;5.50;1.75;;;17.20;55.70;;;;;;5009342;28;20176;-62
2022/01/25 06:51:15;;;;;;;4.45;1.90;;;17.30;55.70;;;;;;5005339;28;20159;-62
2022/01/25 06:53:40;;;;;;;4.25;2.20;;;17.20;55.70;;;;;;5018654;28;20131;-62
2022/01/25 06:56:06;;;;;;;2.53;2.08;;;17.20;56.30;;;;;;4999686;28;20207;-64
2022/01/25 06:58:32;;;;;;;3.83;1.85;;;17.30;55.60;;;;;;5005513;28;20083;-62
2022/01/25 07:00:57;;;;;;;2.63;2.20;;;17.30;55.70;;;;;;5007829;28;20499;-61
2022/01/25 07:03:23;;;;;;;4.03;2.53;;;17.20;55.70;;;;;;5009106;28;20030;-63
2022/01/25 07:05:48;;;;;;;4.28;2.22;;;17.30;55.70;;;;;;5030443;28;20037;-62
2022/01/25 07:08:14;;;;;;;5.45;2.40;;;17.20;55.80;;;;;;5006943;28;20808;-62
2022/01/25 07:10:39;;;;;;;3.22;2.30;;;17.20;55.80;;;;;;5018482;28;20037;-61
2022/01/25 07:13:05;;;;;;;4.53;2.60;;;17.20;56.00;;;;;;5017962;28;20061;-61
2022/01/25 07:15:30;;;;;;;5.07;3.47;;;17.20;56.10;;;;;;5017985;28;20156;-61
2022/01/25 07:17:56;;;;;;;14.05;5.68;;;17.20;56.10;;;;;;5023396;28;20108;-61
2022/01/25 07:20:21;;;;;;;14.75;6.28;;;17.20;56.30;;;;;;4986897;28;20125;-61
2022/01/25 07:22:47;;;;;;;8.32;5.18;;;17.20;56.30;;;;;;5014539;28;20052;-62
2022/01/25 07:25:13;;;;;;;11.90;5.10;;;17.20;56.20;;;;;;5017397;28;20029;-63
2022/01/25 07:27:38;;;;;;;9.55;5.38;;;17.20;56.00;;;;;;5000361;28;20648;-61
2022/01/25 07:30:06;;;;;;;13.07;4.97;;;17.20;55.90;;;;;;5009153;28;20049;-62
2022/01/25 07:32:32;;;;;;;17.15;5.30;;;17.20;55.90;;;;;;5013294;28;20033;-61
2022/01/25 07:34:57;;;;;;;7.45;4.95;;;17.20;55.80;;;;;;5011989;28;20041;-63
2022/01/25 07:37:23;;;;;;;10.70;5.40;;;17.10;55.60;;;;;;5017036;28;20030;-63
2022/01/25 07:39:48;;;;;;;10.80;4.57;;;17.10;55.60;;;;;;5010793;28;20499;-61
2022/01/25 07:42:16;;;;;;;8.82;5.18;;;17.10;55.50;;;;;;5039145;28;20671;-61
2022/01/25 07:44:41;;;;;;;12.65;7.05;;;17.10;55.50;;;;;;5023093;28;20105;-63
2022/01/25 07:47:07;;;;;;;13.02;6.00;;;17.10;55.60;;;;;;5017152;28;20049;-63
2022/01/25 07:49:32;;;;;;;13.05;5.88;;;17.10;55.40;;;;;;5022747;28;20022;-60
2022/01/25 07:51:58;;;;;;;12.75;5.75;;;17.10;55.20;;;;;;5011023;28;20033;-63
2022/01/25 07:54:24;;;;;;;10.52;5.63;;;17.10;55.00;;;;;;5017546;28;20036;-61
2022/01/25 07:56:49;;;;;;;12.73;4.70;;;17.10;55.00;;;;;;5013583;28;20446;-62
2022/01/25 07:59:15;;;;;;;11.18;4.95;;;17.10;55.00;;;;;;5027051;28;20173;-62
2022/01/25 08:01:41;;;;;;;8.57;4.72;;;17.10;55.00;;;;;;5016267;28;20040;-63
2022/01/25 08:04:08;;;;;;;10.15;4.25;;;17.10;54.90;;;;;;5008846;28;20406;-61
2022/01/25 08:06:33;;;;;;;8.80;4.75;;;17.10;54.90;;;;;;5013669;28;20026;-62
2022/01/25 08:09:00;;;;;;;9.55;4.68;;;17.10;54.80;;;;;;5021361;28;20029;-62
2022/01/25 08:11:25;;;;;;;11.18;5.45;;;17.10;54.90;;;;;;5013779;28;20109;-61
2022/01/25 08:13:52;;;;;;;28.38;13.43;;;17.10;55.10;;;;;;5019908;28;20133;-63
2022/01/25 08:16:17;;;;;;;30.48;13.38;;;17.10;56.60;;;;;;5015346;28;20034;-61
2022/01/25 08:18:43;;;;;;;34.10;13.85;;;17.20;57.10;;;;;;5012598;28;20030;-62
2022/01/25 08:21:09;;;;;;;23.52;13.27;;;17.20;57.60;;;;;;5013778;28;20037;-62
2022/01/25 08:23:34;;;;;;;29.77;12.90;;;17.20;57.70;;;;;;5005991;28;20034;-62
2022/01/25 08:26:00;;;;;;;29.05;12.77;;;17.20;57.70;;;;;;5012811;28;20030;-62
2022/01/25 08:28:26;;;;;;;23.75;10.80;;;17.20;57.80;;;;;;5005979;28;20026;-61
2022/01/25 08:30:51;;;;;;;25.92;10.48;;;17.20;57.80;;;;;;5007648;28;20025;-63
2022/01/25 08:33:16;;;;;;;19.58;11.23;;;17.20;57.80;;;;;;5014109;28;20024;-61
2022/01/25 08:35:42;;;;;;;21.55;10.82;;;17.20;57.80;;;;;;5013319;28;20029;-61
2022/01/25 08:38:08;;;;;;;24.02;10.38;;;17.20;57.80;;;;;;4989564;28;20049;-61
2022/01/25 08:40:34;;;;;;;18.25;9.95;;;17.20;57.80;;;;;;5010334;28;20030;-62
2022/01/25 08:43:00;;;;;;;18.60;9.05;;;17.20;57.70;;;;;;5031140;28;20559;-62
2022/01/25 08:45:26;;;;;;;16.08;10.57;;;17.20;57.70;;;;;;5022365;28;20057;-62
2022/01/25 08:47:51;;;;;;;13.15;8.30;;;17.20;57.70;;;;;;5007596;28;20065;-63
2022/01/25 08:50:17;;;;;;;18.10;8.95;;;17.20;57.80;;;;;;5004172;28;20030;-61
2022/01/25 08:52:42;;;;;;;16.90;8.13;;;17.20;58.00;;;;;;5005689;28;20049;-63
2022/01/25 08:55:08;;;;;;;17.70;8.02;;;17.10;58.10;;;;;;5011589;28;20057;-63
2022/01/25 08:57:33;;;;;;;15.63;6.85;;;17.10;58.20;;;;;;4994258;28;20033;-63
2022/01/25 08:59:59;;;;;;;15.60;7.60;;;17.10;58.40;;;;;;5016198;28;20045;-63
2022/01/25 09:02:25;;;;;;;16.80;7.28;;;17.10;58.50;;;;;;5014856;28;20064;-63
2022/01/25 09:04:50;;;;;;;12.95;6.97;;;17.10;58.60;;;;;;5027437;28;20399;-63
2022/01/25 09:07:16;;;;;;;15.55;6.68;;;17.10;58.70;;;;;;5006798;28;20030;-64
2022/01/25 09:09:42;;;;;;;19.95;6.82;;;17.10;58.80;;;;;;5033193;28;20037;-63
2022/01/25 09:12:08;;;;;;;14.43;6.75;;;17.10;58.90;;;;;;5021817;28;20075;-63
2022/01/25 09:14:33;;;;;;;10.25;6.57;;;17.10;58.90;;;;;;5019365;28;20547;-61
2022/01/25 09:16:59;;;;;;;13.27;6.20;;;17.10;58.90;;;;;;5025272;28;20089;-61
2022/01/25 09:19:24;;;;;;;12.13;6.25;;;17.10;59.00;;;;;;5018516;28;20101;-62
2022/01/25 09:21:50;;;;;;;8.80;5.75;;;17.10;58.70;;;;;;5010588;28;20069;-63
2022/01/25 09:24:15;;;;;;;8.50;5.03;;;17.10;58.70;;;;;;5003034;28;20694;-63
2022/01/25 09:26:41;;;;;;;14.43;6.45;;;17.10;58.80;;;;;;5012265;23;20508;-63
2022/01/25 09:29:06;;;;;;;8.73;5.47;;;17.10;59.00;;;;;;5022701;28;20052;-63
2022/01/25 09:31:32;;;;;;;10.05;5.13;;;17.10;59.10;;;;;;5013337;28;20033;-63
2022/01/25 09:33:57;;;;;;;14.60;5.88;;;17.10;59.10;;;;;;5021068;28;20037;-63
2022/01/25 09:36:24;;;;;;;14.32;5.65;;;17.20;59.20;;;;;;5037073;28;20047;-64
2022/01/25 09:38:51;;;;;;;9.25;5.15;;;17.20;59.20;;;;;;5014220;28;20463;-63
2022/01/25 09:41:16;;;;;;;9.13;5.20;;;17.20;59.20;;;;;;5009646;28;20425;-64
2022/01/25 09:43:42;;;;;;;9.52;4.70;;;17.20;59.20;;;;;;5013541;28;20024;-63
2022/01/25 09:46:07;;;;;;;9.48;4.55;;;17.20;59.20;;;;;;5013497;28;20022;-63
2022/01/25 09:48:33;;;;;;;9.98;5.03;;;17.20;59.20;;;;;;5009020;28;20046;-64
2022/01/25 09:50:59;;;;;;;10.13;5.28;;;17.10;59.10;;;;;;5013843;28;20040;-64
2022/01/25 09:53:25;;;;;;;9.48;4.50;;;17.20;59.20;;;;;;5014413;28;20022;-64
2022/01/25 09:55:51;;;;;;;6.20;4.25;;;17.20;59.20;;;;;;5015505;28;20022;-63
2022/01/25 09:58:16;;;;;;;7.60;4.20;;;17.20;59.30;;;;;;5005976;28;20496;-63
2022/01/25 10:00:43;;;;;;;7.63;4.90;;;17.10;59.10;;;;;;5015705;28;20029;-63
2022/01/25 10:03:21;;;;;;;12.20;4.88;;;17.20;58.90;;;;;;5016073;28;20515;-63
2022/01/25 10:05:48;;;;;;;8.75;4.13;;;17.20;59.00;;;;;;5007641;28;20025;-63
2022/01/25 10:08:20;;;;;;;7.85;4.40;;;17.20;59.00;;;;;;5018510;28;20047;-63
2022/01/25 10:11:23;;;;;;;6.90;3.78;;;17.20;59.10;;;;;;5016900;28;20018;-63
2022/01/25 10:13:51;;;;;;;7.72;4.28;;;17.20;59.00;;;;;;4982851;28;20599;-63
2022/01/25 10:16:18;;;;;;;6.60;3.90;;;17.20;58.80;;;;;;5013253;28;20029;-63
2022/01/25 10:18:47;;;;;;;7.30;3.70;;;17.20;58.80;;;;;;5017992;28;20014;-63
2022/01/25 10:21:32;;;;;;;6.10;3.90;;;17.20;58.70;;;;;;5013774;28;20048;-63
2022/01/25 10:24:11;;;;;;;6.75;4.28;;;17.30;58.60;;;;;;5025486;28;20396;-63
2022/01/25 10:26:41;;;;;;;7.05;4.25;;;17.30;58.50;;;;;;5016759;28;20037;-61
2022/01/25 10:29:07;;;;;;;7.05;4.10;;;17.20;58.40;;;;;;5012704;28;20048;-61
2022/01/25 10:31:37;;;;;;;5.28;4.00;;;17.30;58.40;;;;;;5009224;28;20022;-61
2022/01/25 10:34:04;;;;;;;10.98;3.90;;;17.30;58.30;;;;;;5020631;28;20484;-61
2022/01/25 10:36:29;;;;;;;6.38;3.55;;;17.30;58.20;;;;;;5009889;28;20028;-61
2022/01/25 10:38:55;;;;;;;5.95;3.65;;;17.30;58.20;;;;;;5005270;28;20041;-63
2022/01/25 10:41:22;;;;;;;6.93;4.13;;;17.30;58.20;;;;;;5016803;28;20022;-63
2022/01/25 10:43:49;;;;;;;7.53;3.55;;;17.30;58.20;;;;;;5012223;28;20100;-63
2022/01/25 10:46:23;;;;;;;6.97;3.45;;;17.30;58.20;;;;;;5017982;28;20034;-63
2022/01/25 10:48:54;;;;;;;4.90;3.60;;;17.30;58.00;;;;;;5013745;28;20201;-64
2022/01/25 10:51:46;;;;;;;7.65;4.18;;;17.30;58.00;;;;;;5012328;28;20049;-63
2022/01/25 10:54:20;;;;;;;9.65;3.95;;;17.30;58.00;;;;;;5007462;28;20033;-60
2022/01/25 10:56:54;;;;;;;4.65;3.67;;;17.30;58.00;;;;;;5016780;28;20022;-61
2022/01/25 10:59:32;;;;;;;6.22;4.25;;;17.30;58.00;;;;;;5020284;28;20029;-60
2022/01/25 11:02:05;;;;;;;13.38;5.32;;;17.30;58.00;;;;;;5017439;28;20117;-62
2022/01/25 11:04:37;;;;;;;12.10;5.97;;;17.30;58.10;;;;;;5016729;28;20022;-62
2022/01/25 11:07:04;;;;;;;14.40;6.55;;;17.30;58.20;;;;;;5015955;28;20029;-62
2022/01/25 11:09:36;;;;;;;11.65;5.47;;;17.30;58.40;;;;;;5025960;28;20025;-62
2022/01/25 11:12:03;;;;;;;14.27;6.43;;;17.30;58.60;;;;;;5019641;28;20051;-63
2022/01/25 11:17:12;;;;;;;11.77;5.55;;;17.40;58.60;;;;;;5013752;28;20403;-67
2022/01/25 11:19:38;;;;;;;11.02;5.63;;;17.30;58.30;;;;;;5023633;28;20109;-64
2022/01/25 11:22:04;;;;;;;13.38;5.50;;;17.40;58.30;;;;;;5021196;28;20053;-64
2022/01/25 11:24:31;;;;;;;10.20;5.50;;;17.40;58.30;;;;;;5019470;28;20037;-64
2022/01/25 11:26:58;;;;;;;12.68;4.97;;;17.40;58.30;;;;;;5015034;28;20033;-64
2022/01/25 11:29:24;;;;;;;12.60;5.90;;;17.40;58.30;;;;;;5005645;28;20109;-64
2022/01/25 11:31:52;;;;;;;9.50;5.20;;;17.40;58.30;;;;;;5000397;28;20105;-64
2022/01/25 11:34:19;;;;;;;13.95;5.38;;;17.40;58.30;;;;;;5025937;28;20021;-64
2022/01/25 11:36:46;;;;;;;10.77;5.18;;;17.40;58.30;;;;;;5018762;28;20048;-63
2022/01/25 11:39:13;;;;;;;8.38;5.07;;;17.40;58.30;;;;;;5017710;28;20033;-64
2022/01/25 11:41:39;;;;;;;9.05;5.28;;;17.40;58.90;;;;;;5005168;28;20624;-64
2022/01/25 11:44:07;;;;;;;7.90;4.35;;;17.40;58.50;;;;;;5023692;28;20075;-63
2022/01/25 11:46:33;;;;;;;10.20;5.28;;;17.40;58.50;;;;;;5012549;28;20030;-63
2022/01/25 11:49:15;;;;;;;10.48;4.43;;;17.40;58.70;;;;;;5015893;28;20069;-63
2022/01/25 11:51:40;;;;;;;7.18;5.10;;;17.40;58.90;;;;;;5016490;28;20032;-63
2022/01/25 11:54:08;;;;;;;7.63;3.85;;;17.40;58.90;;;;;;5017191;28;20029;-63
2022/01/25 11:56:34;;;;;;;9.23;4.28;;;17.40;58.90;;;;;;5022296;28;20026;-63
2022/01/25 11:59:00;;;;;;;8.00;4.35;;;17.40;58.90;;;;;;5014163;28;20374;-64
2022/01/25 12:01:26;;;;;;;10.18;3.88;;;17.40;59.00;;;;;;5018609;28;20084;-64
2022/01/25 12:03:55;;;;;;;8.32;4.03;;;17.40;58.90;;;;;;5017739;28;20022;-64
2022/01/25 12:06:26;;;;;;;8.00;4.47;;;17.40;58.90;;;;;;5017260;28;20018;-64
2022/01/25 12:11:30;;;;;;;7.97;4.15;;;17.40;58.90;;;;;;5019239;28;20132;-63
2022/01/25 12:14:30;;;;;;;6.22;3.60;;;17.40;58.90;;;;;;5020246;28;20529;-64
2022/01/25 12:17:02;;;;;;;6.35;4.03;;;17.40;58.90;;;;;;5014829;28;20053;-63
2022/01/25 12:19:30;;;;;;;5.65;3.50;;;17.40;58.80;;;;;;5015182;28;20036;-64
2022/01/25 12:21:57;;;;;;;5.28;3.90;;;17.40;58.70;;;;;;5019099;28;20025;-64
2022/01/25 12:24:33;;;;;;;7.13;3.63;;;17.40;59.00;;;;;;5014957;28;20048;-64
2022/01/25 12:27:17;;;;;;;7.47;3.42;;;17.40;58.60;;;;;;5015634;28;20030;-63
2022/01/25 12:29:47;;;;;;;6.68;3.65;;;17.40;58.70;;;;;;5009947;28;20030;-65
2022/01/25 12:32:20;;;;;;;7.03;3.88;;;17.40;58.70;;;;;;5006951;28;20698;-63
2022/01/25 12:34:57;;;;;;;8.48;3.95;;;17.50;58.70;;;;;;5015000;28;20036;-64
2022/01/25 12:37:53;;;;;;;6.57;3.53;;;17.50;58.70;;;;;;5010153;28;20034;-64
2022/01/25 12:40:31;;;;;;;7.15;3.20;;;17.40;58.60;;;;;;5008730;28;20588;-64
2022/01/25 12:43:05;;;;;;;8.10;3.88;;;17.40;58.60;;;;;;5016383;28;20037;-64
2022/01/25 12:45:32;;;;;;;4.97;3.00;;;17.40;58.50;;;;;;5014867;28;20029;-64
2022/01/25 12:47:59;;;;;;;5.20;3.45;;;17.40;58.40;;;;;;5019585;28;20029;-63
2022/01/25 12:50:24;;;;;;;5.95;3.33;;;17.50;58.40;;;;;;5014025;28;20610;-62
2022/01/25 12:52:50;;;;;;;5.00;3.13;;;17.50;58.40;;;;;;5020168;28;20045;-63
2022/01/25 12:55:16;;;;;;;7.53;3.10;;;17.40;58.30;;;;;;5019646;28;20036;-63
2022/01/25 12:57:48;;;;;;;8.77;4.10;;;17.50;58.20;;;;;;5020665;28;20551;-63
2022/01/25 13:00:14;;;;;;;8.90;3.58;;;17.40;58.00;;;;;;5023980;28;20506;-63
2022/01/25 13:02:40;;;;;;;5.00;3.40;;;17.40;57.90;;;;;;5007965;28;20034;-63
2022/01/25 13:05:19;;;;;;;5.53;3.72;;;17.40;57.90;;;;;;5010534;28;20030;-63
2022/01/25 13:07:45;;;;;;;5.50;3.40;;;17.40;57.80;;;;;;5008592;28;20459;-63
2022/01/25 13:10:21;;;;;;;6.53;3.60;;;17.40;57.70;;;;;;5018718;28;20121;-63
2022/01/25 13:12:56;;;;;;;5.90;3.92;;;17.50;57.70;;;;;;5006324;28;20032;-63
2022/01/25 13:16:06;;;;;;;6.82;3.40;;;17.40;57.50;;;;;;5023122;28;20064;-63
2022/01/25 13:18:13;;;;;;;4.90;3.42;;;17.50;57.40;;;;;;5007078;28;20108;-63
2022/01/25 13:20:41;;;;;;;4.85;3.33;;;17.50;57.30;;;;;;5021272;28;20713;-63
2022/01/25 13:23:07;;;;;;;4.47;2.92;;;17.50;57.20;;;;;;5023998;28;20030;-63
2022/01/25 13:25:52;;;;;;;4.45;3.47;;;17.50;57.20;;;;;;5021741;28;20029;-63
2022/01/25 13:28:34;;;;;;;5.95;3.85;;;17.50;57.20;;;;;;5011430;28;20112;-63
2022/01/25 13:31:05;;;;;;;4.65;3.40;;;17.50;57.10;;;;;;5012542;28;20034;-63
2022/01/25 13:33:31;;;;;;;6.43;3.67;;;17.50;57.10;;;;;;5023989;28;20538;-63
2022/01/25 13:35:57;;;;;;;5.35;3.67;;;17.40;57.00;;;;;;5006538;28;20101;-63
2022/01/25 13:38:27;;;;;;;5.38;3.30;;;17.50;57.10;;;;;;5009254;28;20528;-62
2022/01/25 13:41:02;;;;;;;5.47;3.47;;;17.50;57.10;;;;;;5011476;28;20224;-63
2022/01/25 13:45:57;;;;;;;4.22;3.20;;;17.50;57.10;;;;;;5018396;28;20568;-63
2022/01/25 13:48:25;;;;;;;5.38;3.80;;;17.50;57.10;;;;;;5022777;28;20022;-63
2022/01/25 13:50:54;;;;;;;6.07;3.30;;;17.50;57.10;;;;;;5016201;28;20050;-63
2022/01/25 13:53:19;;;;;;;5.30;3.55;;;17.40;57.00;;;;;;5007725;28;20388;-64
2022/01/25 13:55:49;;;;;;;4.53;3.28;;;17.50;57.00;;;;;;5008194;28;20034;-63
2022/01/25 13:58:19;;;;;;;7.38;3.70;;;17.50;57.00;;;;;;5016104;28;20017;-63
2022/01/25 14:00:45;;;;;;;6.93;3.70;;;17.50;57.00;;;;;;5007487;28;20033;-63
2022/01/25 14:03:10;;;;;;;5.07;3.83;;;17.50;57.00;;;;;;5011821;28;20014;-63
2022/01/25 14:05:36;;;;;;;6.88;3.45;;;17.50;57.00;;;;;;5011346;28;20034;-63
2022/01/25 14:08:02;;;;;;;5.65;3.78;;;17.40;57.00;;;;;;5021054;28;20072;-63
2022/01/25 14:10:29;;;;;;;5.30;4.32;;;17.40;57.00;;;;;;5011414;28;20017;-63
2022/01/25 14:21:53;;;;;;;6.53;4.13;;;17.40;57.00;;;;;;5012767;28;20037;-63
2022/01/25 14:24:17;;;;;;;5.32;3.42;;;17.40;57.00;;;;;;5011151;28;20034;-63
2022/01/25 14:26:43;;;;;;;5.70;3.60;;;17.50;57.10;;;;;;5014732;28;20133;-63
2022/01/25 14:29:14;;;;;;;8.57;3.72;;;17.40;57.10;;;;;;5012966;28;20072;-57
2022/01/25 14:31:42;;;;;;;5.38;3.53;;;17.40;57.10;;;;;;5006517;28;20112;-63
2022/01/25 14:34:12;;;;;;;6.43;3.35;;;17.40;57.10;;;;;;5008760;28;20037;-63